sensor_id;sensor_type;location;lat;lon;timestamp;P1;durP1;ratioP1;P2;durP2;ratioP2
63005;SDS011;53704;52.532;6.426;2022-07-29T00:01:15;3.42;;;2.00;;
63005;SDS011;53704;52.532;6.426;2022-07-29T00:03:41;5.47;;;1.65;;
63005;SDS011;53704;52.532;6.426;2022-07-29T00:06:06;5.78;;;1.67;;
63005;SDS011;53704;52.532;6.426;2022-07-29T00:08:32;6.32;;;1.88;;
63005;SDS011;53704;52.532;6.426;2022-07-29T00:10:57;3.60;;;1.63;;
63005;SDS011;53704;52.532;6.426;2022-07-29T00:13:23;3.20;;;1.92;;
63005;SDS011;53704;52.532;6.426;2022-07-29T00:15:48;2.70;;;1.70;;
63005;SDS011;53704;52.532;6.426;2022-07-29T00:18:14;5.80;;;1.88;;
63005;SDS011;53704;52.532;6.426;2022-07-29T00:20:39;6.10;;;1.92;;
63005;SDS011;53704;52.532;6.426;2022-07-29T00:23:05;4.10;;;2.00;;
63005;SDS011;53704;52.532;6.426;2022-07-29T00:25:30;3.45;;;1.70;;
63005;SDS011;53704;52.532;6.426;2022-07-29T00:27:56;4.95;;;2.45;;
63005;SDS011;53704;52.532;6.426;2022-07-29T00:30:22;1.90;;;1.75;;
63005;SDS011;53704;52.532;6.426;2022-07-29T00:32:48;3.72;;;1.77;;
63005;SDS011;53704;52.532;6.426;2022-07-29T00:35:13;3.92;;;1.92;;
63005;SDS011;53704;52.532;6.426;2022-07-29T00:37:57;3.05;;;1.60;;
63005;SDS011;53704;52.532;6.426;2022-07-29T00:40:23;5.13;;;2.00;;
63005;SDS011;53704;52.532;6.426;2022-07-29T00:42:49;4.63;;;1.63;;
63005;SDS011;53704;52.532;6.426;2022-07-29T00:45:15;6.93;;;2.10;;
63005;SDS011;53704;52.532;6.426;2022-07-29T00:47:42;3.15;;;1.90;;
63005;SDS011;53704;52.532;6.426;2022-07-29T00:50:08;6.20;;;2.25;;
63005;SDS011;53704;52.532;6.426;2022-07-29T00:52:36;7.50;;;2.20;;
63005;SDS011;53704;52.532;6.426;2022-07-29T00:55:04;4.55;;;2.28;;
63005;SDS011;53704;52.532;6.426;2022-07-29T00:57:30;2.22;;;1.88;;
63005;SDS011;53704;52.532;6.426;2022-07-29T00:59:56;8.82;;;1.92;;
63005;SDS011;53704;52.532;6.426;2022-07-29T01:02:22;5.60;;;1.92;;
63005;SDS011;53704;52.532;6.426;2022-07-29T01:04:47;5.35;;;2.33;;
63005;SDS011;53704;52.532;6.426;2022-07-29T01:07:14;7.50;;;2.78;;
63005;SDS011;53704;52.532;6.426;2022-07-29T01:09:40;2.05;;;1.75;;
63005;SDS011;53704;52.532;6.426;2022-07-29T01:12:07;4.43;;;2.15;;
63005;SDS011;53704;52.532;6.426;2022-07-29T01:14:33;5.05;;;2.08;;
63005;SDS011;53704;52.532;6.426;2022-07-29T01:17:02;8.82;;;1.80;;
63005;SDS011;53704;52.532;6.426;2022-07-29T01:20:25;4.40;;;1.95;;
63005;SDS011;53704;52.532;6.426;2022-07-29T01:31:02;3.10;;;1.98;;
63005;SDS011;53704;52.532;6.426;2022-07-29T01:33:29;3.15;;;2.00;;
63005;SDS011;53704;52.532;6.426;2022-07-29T01:36:20;2.15;;;1.95;;
63005;SDS011;53704;52.532;6.426;2022-07-29T01:39:11;6.53;;;2.17;;
63005;SDS011;53704;52.532;6.426;2022-07-29T01:42:28;3.47;;;1.73;;
63005;SDS011;53704;52.532;6.426;2022-07-29T01:44:39;6.32;;;2.38;;
63005;SDS011;53704;52.532;6.426;2022-07-29T01:47:17;4.43;;;2.20;;
63005;SDS011;53704;52.532;6.426;2022-07-29T01:49:49;4.13;;;1.80;;
63005;SDS011;53704;52.532;6.426;2022-07-29T01:52:30;4.78;;;2.47;;
63005;SDS011;53704;52.532;6.426;2022-07-29T01:55:03;4.40;;;1.90;;
63005;SDS011;53704;52.532;6.426;2022-07-29T01:57:33;7.47;;;2.28;;
63005;SDS011;53704;52.532;6.426;2022-07-29T02:00:01;5.88;;;1.83;;
63005;SDS011;53704;52.532;6.426;2022-07-29T02:02:28;3.15;;;2.20;;
63005;SDS011;53704;52.532;6.426;2022-07-29T02:04:57;2.60;;;2.30;;
63005;SDS011;53704;52.532;6.426;2022-07-29T02:07:25;7.15;;;2.28;;
63005;SDS011;53704;52.532;6.426;2022-07-29T02:09:54;3.90;;;2.42;;
63005;SDS011;53704;52.532;6.426;2022-07-29T02:12:22;5.85;;;2.13;;
63005;SDS011;53704;52.532;6.426;2022-07-29T02:14:51;6.45;;;2.25;;
63005;SDS011;53704;52.532;6.426;2022-07-29T02:17:23;3.63;;;2.63;;
63005;SDS011;53704;52.532;6.426;2022-07-29T02:19:51;7.15;;;2.10;;
63005;SDS011;53704;52.532;6.426;2022-07-29T02:22:21;7.63;;;2.08;;
63005;SDS011;53704;52.532;6.426;2022-07-29T02:24:49;5.20;;;2.00;;
63005;SDS011;53704;52.532;6.426;2022-07-29T02:27:18;3.97;;;1.88;;
63005;SDS011;53704;52.532;6.426;2022-07-29T02:29:45;6.90;;;2.50;;
63005;SDS011;53704;52.532;6.426;2022-07-29T02:32:12;4.55;;;2.47;;
63005;SDS011;53704;52.532;6.426;2022-07-29T02:34:39;2.58;;;2.30;;
63005;SDS011;53704;52.532;6.426;2022-07-29T02:37:07;2.40;;;2.20;;
63005;SDS011;53704;52.532;6.426;2022-07-29T02:39:35;3.97;;;2.53;;
63005;SDS011;53704;52.532;6.426;2022-07-29T02:42:03;2.53;;;2.20;;
63005;SDS011;53704;52.532;6.426;2022-07-29T02:44:32;4.90;;;2.20;;
63005;SDS011;53704;52.532;6.426;2022-07-29T02:49:45;4.90;;;1.77;;
63005;SDS011;53704;52.532;6.426;2022-07-29T02:55:31;7.55;;;2.20;;
63005;SDS011;53704;52.532;6.426;2022-07-29T03:00:53;2.67;;;2.33;;
63005;SDS011;53704;52.532;6.426;2022-07-29T03:03:21;5.85;;;2.55;;
63005;SDS011;53704;52.532;6.426;2022-07-29T03:05:52;3.67;;;2.42;;
63005;SDS011;53704;52.532;6.426;2022-07-29T03:08:21;5.55;;;2.03;;
63005;SDS011;53704;52.532;6.426;2022-07-29T03:10:47;5.07;;;2.50;;
63005;SDS011;53704;52.532;6.426;2022-07-29T03:13:13;2.55;;;2.35;;
63005;SDS011;53704;52.532;6.426;2022-07-29T03:15:42;4.43;;;2.03;;
63005;SDS011;53704;52.532;6.426;2022-07-29T03:18:09;3.25;;;2.20;;
63005;SDS011;53704;52.532;6.426;2022-07-29T03:20:34;12.90;;;2.63;;
63005;SDS011;53704;52.532;6.426;2022-07-29T03:23:01;3.90;;;2.10;;
63005;SDS011;53704;52.532;6.426;2022-07-29T03:25:27;5.07;;;2.72;;
63005;SDS011;53704;52.532;6.426;2022-07-29T03:27:52;4.75;;;2.60;;
63005;SDS011;53704;52.532;6.426;2022-07-29T03:30:18;8.85;;;2.58;;
63005;SDS011;53704;52.532;6.426;2022-07-29T03:32:43;3.05;;;2.35;;
63005;SDS011;53704;52.532;6.426;2022-07-29T03:35:09;2.40;;;2.20;;
63005;SDS011;53704;52.532;6.426;2022-07-29T03:37:34;7.03;;;2.85;;
63005;SDS011;53704;52.532;6.426;2022-07-29T03:40:02;6.45;;;2.20;;
63005;SDS011;53704;52.532;6.426;2022-07-29T03:42:31;5.60;;;2.60;;
63005;SDS011;53704;52.532;6.426;2022-07-29T03:44:59;5.03;;;2.20;;
63005;SDS011;53704;52.532;6.426;2022-07-29T03:47:28;3.83;;;2.28;;
63005;SDS011;53704;52.532;6.426;2022-07-29T03:49:58;12.10;;;3.35;;
63005;SDS011;53704;52.532;6.426;2022-07-29T03:52:27;6.28;;;2.30;;
63005;SDS011;53704;52.532;6.426;2022-07-29T03:54:52;2.63;;;2.22;;
63005;SDS011;53704;52.532;6.426;2022-07-29T03:57:18;4.97;;;2.60;;
63005;SDS011;53704;52.532;6.426;2022-07-29T03:59:48;5.82;;;2.70;;
63005;SDS011;53704;52.532;6.426;2022-07-29T04:02:13;5.93;;;2.25;;
63005;SDS011;53704;52.532;6.426;2022-07-29T04:04:39;5.68;;;2.22;;
63005;SDS011;53704;52.532;6.426;2022-07-29T04:07:04;4.90;;;3.17;;
63005;SDS011;53704;52.532;6.426;2022-07-29T04:09:31;3.65;;;2.40;;
63005;SDS011;53704;52.532;6.426;2022-07-29T04:11:57;2.78;;;2.53;;
63005;SDS011;53704;52.532;6.426;2022-07-29T04:14:22;3.38;;;2.60;;
63005;SDS011;53704;52.532;6.426;2022-07-29T04:16:47;14.05;;;3.25;;
63005;SDS011;53704;52.532;6.426;2022-07-29T04:19:13;4.68;;;2.00;;
63005;SDS011;53704;52.532;6.426;2022-07-29T04:21:39;9.00;;;2.72;;
63005;SDS011;53704;52.532;6.426;2022-07-29T04:24:05;4.30;;;2.35;;
63005;SDS011;53704;52.532;6.426;2022-07-29T04:26:31;9.65;;;2.60;;
63005;SDS011;53704;52.532;6.426;2022-07-29T04:28:57;2.70;;;2.45;;
63005;SDS011;53704;52.532;6.426;2022-07-29T04:31:22;5.22;;;2.35;;
63005;SDS011;53704;52.532;6.426;2022-07-29T04:33:48;11.77;;;2.80;;
63005;SDS011;53704;52.532;6.426;2022-07-29T04:36:13;7.35;;;3.00;;
63005;SDS011;53704;52.532;6.426;2022-07-29T04:38:38;4.90;;;2.47;;
63005;SDS011;53704;52.532;6.426;2022-07-29T04:41:04;5.45;;;2.72;;
63005;SDS011;53704;52.532;6.426;2022-07-29T04:43:31;2.65;;;2.10;;
63005;SDS011;53704;52.532;6.426;2022-07-29T04:46:00;2.28;;;2.17;;
63005;SDS011;53704;52.532;6.426;2022-07-29T04:48:26;9.13;;;2.67;;
63005;SDS011;53704;52.532;6.426;2022-07-29T04:50:51;9.98;;;2.90;;
63005;SDS011;53704;52.532;6.426;2022-07-29T04:53:17;6.10;;;2.65;;
63005;SDS011;53704;52.532;6.426;2022-07-29T04:55:42;4.57;;;2.50;;
63005;SDS011;53704;52.532;6.426;2022-07-29T04:58:09;2.72;;;2.22;;
63005;SDS011;53704;52.532;6.426;2022-07-29T05:00:36;2.33;;;2.13;;
63005;SDS011;53704;52.532;6.426;2022-07-29T05:03:03;2.30;;;2.10;;
63005;SDS011;53704;52.532;6.426;2022-07-29T05:05:28;6.60;;;2.70;;
63005;SDS011;53704;52.532;6.426;2022-07-29T05:07:54;4.15;;;2.22;;
63005;SDS011;53704;52.532;6.426;2022-07-29T05:10:20;5.97;;;2.30;;
63005;SDS011;53704;52.532;6.426;2022-07-29T05:12:45;9.07;;;3.00;;
63005;SDS011;53704;52.532;6.426;2022-07-29T05:15:11;4.07;;;2.63;;
63005;SDS011;53704;52.532;6.426;2022-07-29T05:17:36;4.80;;;2.35;;
63005;SDS011;53704;52.532;6.426;2022-07-29T05:20:02;4.53;;;2.25;;
63005;SDS011;53704;52.532;6.426;2022-07-29T05:22:28;6.53;;;2.63;;
63005;SDS011;53704;52.532;6.426;2022-07-29T05:24:54;9.82;;;2.70;;
63005;SDS011;53704;52.532;6.426;2022-07-29T05:27:19;3.30;;;2.42;;
63005;SDS011;53704;52.532;6.426;2022-07-29T05:29:45;5.70;;;2.28;;
63005;SDS011;53704;52.532;6.426;2022-07-29T05:32:10;7.32;;;2.25;;
63005;SDS011;53704;52.532;6.426;2022-07-29T05:34:35;5.72;;;3.10;;
63005;SDS011;53704;52.532;6.426;2022-07-29T05:37:01;4.70;;;2.55;;
63005;SDS011;53704;52.532;6.426;2022-07-29T05:39:27;4.40;;;3.00;;
63005;SDS011;53704;52.532;6.426;2022-07-29T05:41:52;2.95;;;2.17;;
63005;SDS011;53704;52.532;6.426;2022-07-29T05:44:17;3.13;;;2.58;;
63005;SDS011;53704;52.532;6.426;2022-07-29T05:46:43;6.88;;;2.47;;
63005;SDS011;53704;52.532;6.426;2022-07-29T05:49:08;7.78;;;2.70;;
63005;SDS011;53704;52.532;6.426;2022-07-29T05:51:34;5.78;;;2.40;;
63005;SDS011;53704;52.532;6.426;2022-07-29T05:54:00;2.97;;;2.70;;
63005;SDS011;53704;52.532;6.426;2022-07-29T05:56:26;4.57;;;2.58;;
63005;SDS011;53704;52.532;6.426;2022-07-29T05:58:52;8.18;;;2.65;;
63005;SDS011;53704;52.532;6.426;2022-07-29T06:01:17;5.00;;;2.58;;
63005;SDS011;53704;52.532;6.426;2022-07-29T06:03:43;5.43;;;2.00;;
63005;SDS011;53704;52.532;6.426;2022-07-29T06:06:09;2.90;;;2.50;;
63005;SDS011;53704;52.532;6.426;2022-07-29T06:08:35;12.52;;;2.63;;
63005;SDS011;53704;52.532;6.426;2022-07-29T06:11:01;4.25;;;2.63;;
63005;SDS011;53704;52.532;6.426;2022-07-29T06:13:27;8.48;;;2.70;;
63005;SDS011;53704;52.532;6.426;2022-07-29T06:15:52;4.90;;;2.17;;
63005;SDS011;53704;52.532;6.426;2022-07-29T06:18:18;10.52;;;2.38;;
63005;SDS011;53704;52.532;6.426;2022-07-29T06:20:45;4.47;;;2.40;;
63005;SDS011;53704;52.532;6.426;2022-07-29T06:23:11;6.13;;;2.40;;
63005;SDS011;53704;52.532;6.426;2022-07-29T06:25:36;3.13;;;2.85;;
63005;SDS011;53704;52.532;6.426;2022-07-29T06:28:02;4.65;;;2.50;;
63005;SDS011;53704;52.532;6.426;2022-07-29T06:30:28;4.57;;;2.50;;
63005;SDS011;53704;52.532;6.426;2022-07-29T06:32:54;3.15;;;2.30;;
63005;SDS011;53704;52.532;6.426;2022-07-29T06:35:20;10.38;;;3.38;;
63005;SDS011;53704;52.532;6.426;2022-07-29T06:37:45;2.35;;;2.15;;
63005;SDS011;53704;52.532;6.426;2022-07-29T06:40:11;8.90;;;2.75;;
63005;SDS011;53704;52.532;6.426;2022-07-29T06:42:55;2.57;;;2.37;;
63005;SDS011;53704;52.532;6.426;2022-07-29T06:45:20;6.40;;;2.53;;
63005;SDS011;53704;52.532;6.426;2022-07-29T06:47:46;4.70;;;2.67;;
63005;SDS011;53704;52.532;6.426;2022-07-29T06:50:11;8.95;;;2.80;;
63005;SDS011;53704;52.532;6.426;2022-07-29T06:52:37;6.05;;;2.60;;
63005;SDS011;53704;52.532;6.426;2022-07-29T06:55:03;3.10;;;2.40;;
63005;SDS011;53704;52.532;6.426;2022-07-29T06:57:29;7.43;;;2.58;;
63005;SDS011;53704;52.532;6.426;2022-07-29T06:59:58;7.40;;;3.10;;
63005;SDS011;53704;52.532;6.426;2022-07-29T07:02:23;5.18;;;3.03;;
63005;SDS011;53704;52.532;6.426;2022-07-29T07:04:49;10.82;;;3.22;;
63005;SDS011;53704;52.532;6.426;2022-07-29T07:07:14;3.38;;;2.65;;
63005;SDS011;53704;52.532;6.426;2022-07-29T07:09:40;9.10;;;3.17;;
63005;SDS011;53704;52.532;6.426;2022-07-29T07:12:06;4.03;;;2.55;;
63005;SDS011;53704;52.532;6.426;2022-07-29T07:14:31;13.45;;;2.92;;
63005;SDS011;53704;52.532;6.426;2022-07-29T07:16:57;16.65;;;3.33;;
63005;SDS011;53704;52.532;6.426;2022-07-29T07:19:22;5.90;;;2.63;;
63005;SDS011;53704;52.532;6.426;2022-07-29T07:21:48;4.03;;;2.90;;
63005;SDS011;53704;52.532;6.426;2022-07-29T07:24:13;7.13;;;2.75;;
63005;SDS011;53704;52.532;6.426;2022-07-29T07:26:38;9.57;;;3.60;;
63005;SDS011;53704;52.532;6.426;2022-07-29T07:29:05;3.50;;;2.47;;
63005;SDS011;53704;52.532;6.426;2022-07-29T07:31:30;12.50;;;2.80;;
63005;SDS011;53704;52.532;6.426;2022-07-29T07:33:56;7.53;;;3.03;;
63005;SDS011;53704;52.532;6.426;2022-07-29T07:36:22;5.93;;;2.80;;
63005;SDS011;53704;52.532;6.426;2022-07-29T07:38:48;11.50;;;2.88;;
63005;SDS011;53704;52.532;6.426;2022-07-29T07:41:14;9.88;;;3.00;;
63005;SDS011;53704;52.532;6.426;2022-07-29T07:43:39;11.02;;;3.22;;
63005;SDS011;53704;52.532;6.426;2022-07-29T07:46:05;4.57;;;2.90;;
63005;SDS011;53704;52.532;6.426;2022-07-29T07:48:30;5.82;;;2.90;;
63005;SDS011;53704;52.532;6.426;2022-07-29T07:50:56;6.07;;;2.63;;
63005;SDS011;53704;52.532;6.426;2022-07-29T07:53:21;6.57;;;3.22;;
63005;SDS011;53704;52.532;6.426;2022-07-29T07:55:47;6.82;;;2.83;;
63005;SDS011;53704;52.532;6.426;2022-07-29T07:58:12;13.95;;;3.00;;
63005;SDS011;53704;52.532;6.426;2022-07-29T08:00:38;7.30;;;2.88;;
63005;SDS011;53704;52.532;6.426;2022-07-29T08:03:03;13.02;;;3.25;;
63005;SDS011;53704;52.532;6.426;2022-07-29T08:05:29;6.88;;;3.15;;
63005;SDS011;53704;52.532;6.426;2022-07-29T08:07:54;10.32;;;3.03;;
63005;SDS011;53704;52.532;6.426;2022-07-29T08:10:20;9.73;;;3.40;;
63005;SDS011;53704;52.532;6.426;2022-07-29T08:13:05;6.32;;;3.08;;
63005;SDS011;53704;52.532;6.426;2022-07-29T08:15:32;9.63;;;3.10;;
63005;SDS011;53704;52.532;6.426;2022-07-29T08:17:57;4.57;;;3.15;;
63005;SDS011;53704;52.532;6.426;2022-07-29T08:20:23;9.27;;;3.28;;
63005;SDS011;53704;52.532;6.426;2022-07-29T08:22:49;8.68;;;3.40;;
63005;SDS011;53704;52.532;6.426;2022-07-29T08:25:15;4.10;;;3.15;;
63005;SDS011;53704;52.532;6.426;2022-07-29T08:27:40;8.80;;;3.40;;
63005;SDS011;53704;52.532;6.426;2022-07-29T08:30:06;6.47;;;3.90;;
63005;SDS011;53704;52.532;6.426;2022-07-29T08:32:32;10.00;;;3.25;;
63005;SDS011;53704;52.532;6.426;2022-07-29T08:34:57;4.60;;;3.53;;
63005;SDS011;53704;52.532;6.426;2022-07-29T08:37:22;7.72;;;3.28;;
63005;SDS011;53704;52.532;6.426;2022-07-29T08:39:48;4.07;;;3.33;;
63005;SDS011;53704;52.532;6.426;2022-07-29T08:42:13;7.43;;;3.72;;
63005;SDS011;53704;52.532;6.426;2022-07-29T08:44:41;8.13;;;3.80;;
63005;SDS011;53704;52.532;6.426;2022-07-29T08:47:07;6.15;;;3.30;;
63005;SDS011;53704;52.532;6.426;2022-07-29T08:49:33;5.43;;;3.00;;
63005;SDS011;53704;52.532;6.426;2022-07-29T08:51:59;3.88;;;3.55;;
63005;SDS011;53704;52.532;6.426;2022-07-29T08:54:25;8.30;;;3.05;;
63005;SDS011;53704;52.532;6.426;2022-07-29T08:56:52;4.05;;;3.70;;
63005;SDS011;53704;52.532;6.426;2022-07-29T08:59:19;5.88;;;4.05;;
63005;SDS011;53704;52.532;6.426;2022-07-29T09:01:47;10.40;;;3.60;;
63005;SDS011;53704;52.532;6.426;2022-07-29T09:04:15;6.57;;;3.63;;
63005;SDS011;53704;52.532;6.426;2022-07-29T09:06:44;13.27;;;3.80;;
63005;SDS011;53704;52.532;6.426;2022-07-29T09:09:12;16.10;;;3.60;;
63005;SDS011;53704;52.532;6.426;2022-07-29T09:11:39;8.18;;;2.90;;
63005;SDS011;53704;52.532;6.426;2022-07-29T09:14:04;17.27;;;3.72;;
63005;SDS011;53704;52.532;6.426;2022-07-29T09:19:23;5.90;;;3.55;;
63005;SDS011;53704;52.532;6.426;2022-07-29T09:21:56;5.00;;;2.97;;
63005;SDS011;53704;52.532;6.426;2022-07-29T09:24:23;5.75;;;3.10;;
63005;SDS011;53704;52.532;6.426;2022-07-29T09:26:49;8.05;;;3.42;;
63005;SDS011;53704;52.532;6.426;2022-07-29T09:29:19;12.57;;;3.50;;
63005;SDS011;53704;52.532;6.426;2022-07-29T09:31:50;7.72;;;3.50;;
63005;SDS011;53704;52.532;6.426;2022-07-29T09:34:21;5.35;;;3.80;;
63005;SDS011;53704;52.532;6.426;2022-07-29T09:36:56;5.82;;;3.10;;
63005;SDS011;53704;52.532;6.426;2022-07-29T09:42:00;8.85;;;3.33;;
63005;SDS011;53704;52.532;6.426;2022-07-29T09:44:40;24.17;;;3.45;;
63005;SDS011;53704;52.532;6.426;2022-07-29T09:47:10;11.38;;;3.10;;
63005;SDS011;53704;52.532;6.426;2022-07-29T09:49:36;5.32;;;3.95;;
63005;SDS011;53704;52.532;6.426;2022-07-29T09:52:18;13.57;;;3.50;;
63005;SDS011;53704;52.532;6.426;2022-07-29T09:54:44;6.53;;;3.45;;
63005;SDS011;53704;52.532;6.426;2022-07-29T09:57:21;7.30;;;2.92;;
63005;SDS011;53704;52.532;6.426;2022-07-29T10:00:02;7.75;;;3.33;;
63005;SDS011;53704;52.532;6.426;2022-07-29T10:02:32;3.15;;;2.92;;
63005;SDS011;53704;52.532;6.426;2022-07-29T10:04:59;10.05;;;3.28;;
63005;SDS011;53704;52.532;6.426;2022-07-29T10:07:26;4.60;;;2.90;;
63005;SDS011;53704;52.532;6.426;2022-07-29T10:10:07;6.82;;;3.40;;
63005;SDS011;53704;52.532;6.426;2022-07-29T10:12:33;3.30;;;2.72;;
63005;SDS011;53704;52.532;6.426;2022-07-29T10:14:59;11.32;;;3.63;;
63005;SDS011;53704;52.532;6.426;2022-07-29T10:17:26;5.30;;;3.25;;
63005;SDS011;53704;52.532;6.426;2022-07-29T10:19:53;7.47;;;3.80;;
63005;SDS011;53704;52.532;6.426;2022-07-29T10:22:18;10.45;;;3.55;;
63005;SDS011;53704;52.532;6.426;2022-07-29T10:24:44;13.52;;;3.40;;
63005;SDS011;53704;52.532;6.426;2022-07-29T10:27:10;7.10;;;3.45;;
63005;SDS011;53704;52.532;6.426;2022-07-29T10:29:35;5.78;;;3.25;;
63005;SDS011;53704;52.532;6.426;2022-07-29T10:35:11;4.93;;;3.05;;
63005;SDS011;53704;52.532;6.426;2022-07-29T10:43:29;5.60;;;3.63;;
63005;SDS011;53704;52.532;6.426;2022-07-29T10:46:00;10.10;;;3.33;;
63005;SDS011;53704;52.532;6.426;2022-07-29T10:48:27;6.45;;;2.95;;
63005;SDS011;53704;52.532;6.426;2022-07-29T10:50:59;8.50;;;3.22;;
63005;SDS011;53704;52.532;6.426;2022-07-29T10:53:49;9.40;;;3.83;;
63005;SDS011;53704;52.532;6.426;2022-07-29T10:56:29;3.75;;;3.40;;
63005;SDS011;53704;52.532;6.426;2022-07-29T11:01:46;9.60;;;3.53;;
63005;SDS011;53704;52.532;6.426;2022-07-29T11:04:12;6.18;;;3.40;;
63005;SDS011;53704;52.532;6.426;2022-07-29T11:09:37;10.65;;;3.22;;
63005;SDS011;53704;52.532;6.426;2022-07-29T11:12:03;4.78;;;2.88;;
63005;SDS011;53704;52.532;6.426;2022-07-29T11:17:26;6.97;;;3.33;;
63005;SDS011;53704;52.532;6.426;2022-07-29T11:20:29;3.55;;;3.20;;
63005;SDS011;53704;52.532;6.426;2022-07-29T11:22:56;8.40;;;3.80;;
63005;SDS011;53704;52.532;6.426;2022-07-29T11:25:22;6.88;;;3.03;;
63005;SDS011;53704;52.532;6.426;2022-07-29T11:27:49;5.75;;;2.97;;
63005;SDS011;53704;52.532;6.426;2022-07-29T11:30:15;6.20;;;3.10;;
63005;SDS011;53704;52.532;6.426;2022-07-29T11:32:41;6.63;;;2.85;;
63005;SDS011;53704;52.532;6.426;2022-07-29T11:43:55;8.60;;;2.95;;
63005;SDS011;53704;52.532;6.426;2022-07-29T11:49:06;5.43;;;2.95;;
63005;SDS011;53704;52.532;6.426;2022-07-29T11:51:33;4.25;;;3.08;;
63005;SDS011;53704;52.532;6.426;2022-07-29T11:54:01;6.72;;;3.60;;
63005;SDS011;53704;52.532;6.426;2022-07-29T11:56:26;13.30;;;3.15;;
63005;SDS011;53704;52.532;6.426;2022-07-29T11:59:06;6.97;;;3.58;;
63005;SDS011;53704;52.532;6.426;2022-07-29T12:01:34;11.88;;;3.10;;
63005;SDS011;53704;52.532;6.426;2022-07-29T12:04:06;5.72;;;2.67;;
63005;SDS011;53704;52.532;6.426;2022-07-29T12:06:35;9.23;;;3.20;;
63005;SDS011;53704;52.532;6.426;2022-07-29T12:09:06;4.68;;;3.42;;
63005;SDS011;53704;52.532;6.426;2022-07-29T12:11:32;17.05;;;3.83;;
63005;SDS011;53704;52.532;6.426;2022-07-29T12:13:58;15.55;;;3.03;;
63005;SDS011;53704;52.532;6.426;2022-07-29T12:16:33;9.27;;;2.83;;
63005;SDS011;53704;52.532;6.426;2022-07-29T12:19:03;10.35;;;3.25;;
63005;SDS011;53704;52.532;6.426;2022-07-29T12:21:29;5.60;;;2.47;;
63005;SDS011;53704;52.532;6.426;2022-07-29T12:24:14;8.43;;;3.15;;
63005;SDS011;53704;52.532;6.426;2022-07-29T12:26:50;4.50;;;3.03;;
63005;SDS011;53704;52.532;6.426;2022-07-29T12:29:20;15.57;;;3.38;;
63005;SDS011;53704;52.532;6.426;2022-07-29T12:31:45;9.27;;;2.72;;
63005;SDS011;53704;52.532;6.426;2022-07-29T12:34:12;14.27;;;3.40;;
63005;SDS011;53704;52.532;6.426;2022-07-29T12:36:39;5.90;;;2.50;;
63005;SDS011;53704;52.532;6.426;2022-07-29T12:39:06;14.85;;;3.33;;
63005;SDS011;53704;52.532;6.426;2022-07-29T12:41:32;9.48;;;2.88;;
63005;SDS011;53704;52.532;6.426;2022-07-29T12:43:57;17.38;;;3.30;;
63005;SDS011;53704;52.532;6.426;2022-07-29T12:46:23;11.32;;;3.10;;
63005;SDS011;53704;52.532;6.426;2022-07-29T12:48:51;6.78;;;2.60;;
63005;SDS011;53704;52.532;6.426;2022-07-29T12:51:28;9.18;;;3.13;;
63005;SDS011;53704;52.532;6.426;2022-07-29T12:54:01;5.65;;;2.95;;
63005;SDS011;53704;52.532;6.426;2022-07-29T12:56:30;8.43;;;3.03;;
63005;SDS011;53704;52.532;6.426;2022-07-29T12:58:55;10.00;;;3.00;;
63005;SDS011;53704;52.532;6.426;2022-07-29T13:01:21;15.75;;;2.67;;
63005;SDS011;53704;52.532;6.426;2022-07-29T13:03:51;10.65;;;3.05;;
63005;SDS011;53704;52.532;6.426;2022-07-29T13:06:27;10.18;;;2.88;;
63005;SDS011;53704;52.532;6.426;2022-07-29T13:11:36;13.98;;;3.15;;
63005;SDS011;53704;52.532;6.426;2022-07-29T13:14:04;12.30;;;3.00;;
63005;SDS011;53704;52.532;6.426;2022-07-29T13:16:31;8.82;;;2.70;;
63005;SDS011;53704;52.532;6.426;2022-07-29T13:19:11;10.32;;;3.33;;
63005;SDS011;53704;52.532;6.426;2022-07-29T13:21:37;16.95;;;3.58;;
63005;SDS011;53704;52.532;6.426;2022-07-29T13:24:07;15.70;;;2.85;;
63005;SDS011;53704;52.532;6.426;2022-07-29T13:26:32;8.80;;;2.83;;
63005;SDS011;53704;52.532;6.426;2022-07-29T13:28:58;10.82;;;3.47;;
63005;SDS011;53704;52.532;6.426;2022-07-29T13:31:23;9.60;;;3.15;;
63005;SDS011;53704;52.532;6.426;2022-07-29T13:33:49;12.98;;;2.95;;
63005;SDS011;53704;52.532;6.426;2022-07-29T13:36:14;7.82;;;2.78;;
63005;SDS011;53704;52.532;6.426;2022-07-29T13:38:40;9.10;;;3.22;;
63005;SDS011;53704;52.532;6.426;2022-07-29T13:41:05;6.53;;;2.63;;
63005;SDS011;53704;52.532;6.426;2022-07-29T13:43:30;4.20;;;2.13;;
63005;SDS011;53704;52.532;6.426;2022-07-29T13:45:56;4.00;;;2.38;;
63005;SDS011;53704;52.532;6.426;2022-07-29T13:48:21;7.85;;;2.03;;
63005;SDS011;53704;52.532;6.426;2022-07-29T13:50:47;4.28;;;2.65;;
63005;SDS011;53704;52.532;6.426;2022-07-29T13:53:13;9.70;;;2.58;;
63005;SDS011;53704;52.532;6.426;2022-07-29T13:55:38;6.47;;;2.47;;
63005;SDS011;53704;52.532;6.426;2022-07-29T13:58:04;5.43;;;2.60;;
63005;SDS011;53704;52.532;6.426;2022-07-29T14:00:31;19.55;;;2.05;;
63005;SDS011;53704;52.532;6.426;2022-07-29T14:02:56;3.35;;;2.42;;
63005;SDS011;53704;52.532;6.426;2022-07-29T14:05:21;6.18;;;2.00;;
63005;SDS011;53704;52.532;6.426;2022-07-29T14:07:47;10.50;;;2.15;;
63005;SDS011;53704;52.532;6.426;2022-07-29T14:10:13;4.45;;;2.20;;
63005;SDS011;53704;52.532;6.426;2022-07-29T14:12:38;7.38;;;2.40;;
63005;SDS011;53704;52.532;6.426;2022-07-29T14:15:04;6.57;;;1.98;;
63005;SDS011;53704;52.532;6.426;2022-07-29T14:17:30;4.50;;;2.42;;
63005;SDS011;53704;52.532;6.426;2022-07-29T14:19:55;12.15;;;2.30;;
63005;SDS011;53704;52.532;6.426;2022-07-29T14:22:21;4.05;;;1.80;;
63005;SDS011;53704;52.532;6.426;2022-07-29T14:24:46;5.82;;;2.03;;
63005;SDS011;53704;52.532;6.426;2022-07-29T14:27:12;1.92;;;1.58;;
63005;SDS011;53704;52.532;6.426;2022-07-29T14:29:37;2.78;;;1.80;;
63005;SDS011;53704;52.532;6.426;2022-07-29T14:32:03;3.47;;;1.58;;
63005;SDS011;53704;52.532;6.426;2022-07-29T14:34:32;7.70;;;1.80;;
63005;SDS011;53704;52.532;6.426;2022-07-29T14:36:58;4.13;;;1.70;;
63005;SDS011;53704;52.532;6.426;2022-07-29T14:39:23;6.47;;;1.98;;
63005;SDS011;53704;52.532;6.426;2022-07-29T14:41:49;11.60;;;2.30;;
63005;SDS011;53704;52.532;6.426;2022-07-29T14:44:16;10.73;;;2.22;;
63005;SDS011;53704;52.532;6.426;2022-07-29T14:46:42;4.70;;;1.83;;
63005;SDS011;53704;52.532;6.426;2022-07-29T14:49:08;6.28;;;1.90;;
63005;SDS011;53704;52.532;6.426;2022-07-29T14:51:33;13.63;;;2.20;;
63005;SDS011;53704;52.532;6.426;2022-07-29T14:53:59;6.80;;;1.88;;
63005;SDS011;53704;52.532;6.426;2022-07-29T14:56:24;12.25;;;2.30;;
63005;SDS011;53704;52.532;6.426;2022-07-29T14:58:50;3.33;;;1.83;;
63005;SDS011;53704;52.532;6.426;2022-07-29T15:01:15;10.50;;;2.38;;
63005;SDS011;53704;52.532;6.426;2022-07-29T15:03:41;8.63;;;2.40;;
63005;SDS011;53704;52.532;6.426;2022-07-29T15:06:06;2.63;;;1.95;;
63005;SDS011;53704;52.532;6.426;2022-07-29T15:08:31;7.00;;;2.17;;
63005;SDS011;53704;52.532;6.426;2022-07-29T15:10:57;6.07;;;1.70;;
63005;SDS011;53704;52.532;6.426;2022-07-29T15:13:24;9.95;;;3.33;;
63005;SDS011;53704;52.532;6.426;2022-07-29T15:15:50;5.60;;;2.13;;
63005;SDS011;53704;52.532;6.426;2022-07-29T15:18:15;6.15;;;1.85;;
63005;SDS011;53704;52.532;6.426;2022-07-29T15:20:41;5.65;;;1.95;;
63005;SDS011;53704;52.532;6.426;2022-07-29T15:23:06;4.90;;;1.83;;
63005;SDS011;53704;52.532;6.426;2022-07-29T15:25:34;6.03;;;2.00;;
63005;SDS011;53704;52.532;6.426;2022-07-29T15:28:01;6.13;;;1.77;;
63005;SDS011;53704;52.532;6.426;2022-07-29T15:30:31;4.82;;;2.53;;
63005;SDS011;53704;52.532;6.426;2022-07-29T15:32:58;13.80;;;2.13;;
63005;SDS011;53704;52.532;6.426;2022-07-29T15:35:23;5.55;;;1.92;;
63005;SDS011;53704;52.532;6.426;2022-07-29T15:37:48;6.82;;;2.17;;
63005;SDS011;53704;52.532;6.426;2022-07-29T15:40:14;8.68;;;2.20;;
63005;SDS011;53704;52.532;6.426;2022-07-29T15:42:39;5.38;;;1.95;;